Time;durP1;ratioP1;P1;durP2;ratioP2;P2;SDS_P1;SDS_P2;PMS_P1;PMS_P2;Temp;Humidity;BMP_temperature;BMP_pressure;BME280_temperature;BME280_humidity;BME280_pressure;Samples;Min_cycle;Max_cycle;Signal;HPM_P1;HPM_P2
2022/04/13 00:00:45;;;;;;;5.20;3.70;;;7.90;70.50;;;;;;6282643;28;20193;-51
2022/04/13 00:03:46;;;;;;;3.50;2.97;;;7.80;70.70;;;;;;6272370;28;20219;-48
2022/04/13 00:06:47;;;;;;;4.40;3.20;;;7.80;70.90;;;;;;6266761;28;20182;-54
2022/04/13 00:09:48;;;;;;;3.23;2.40;;;7.80;71.00;;;;;;6266003;28;20185;-47
2022/04/13 00:12:49;;;;;;;3.27;2.97;;;7.70;71.20;;;;;;6269636;28;20191;-52
2022/04/13 00:15:49;;;;;;;3.70;3.33;;;7.70;71.20;;;;;;6285620;28;20212;-50
2022/04/13 00:18:50;;;;;;;2.93;2.47;;;7.60;71.40;;;;;;6265823;28;20189;-51
2022/04/13 00:22:10;;;;;;;4.07;2.33;;;7.60;71.80;;;;;;6265705;28;20203;-51
2022/04/13 00:25:11;;;;;;;3.07;2.73;;;7.50;71.90;;;;;;6289811;28;20223;-50
2022/04/13 00:28:11;;;;;;;2.50;2.10;;;7.50;72.00;;;;;;6290403;28;20251;-50
2022/04/13 00:31:12;;;;;;;3.23;2.70;;;7.50;71.90;;;;;;6290242;28;20220;-51
2022/04/13 00:34:13;;;;;;;3.30;2.87;;;7.50;71.90;;;;;;6281875;28;20192;-49
2022/04/13 00:37:14;;;;;;;4.53;2.70;;;7.40;72.00;;;;;;6281681;28;20288;-48
2022/04/13 00:40:14;;;;;;;3.93;2.80;;;7.40;72.20;;;;;;6269831;28;20199;-48
2022/04/13 00:43:16;;;;;;;2.80;2.43;;;7.30;72.30;;;;;;6264950;28;20221;-48
2022/04/13 00:46:16;;;;;;;4.10;3.07;;;7.30;72.50;;;;;;6299796;28;20222;-48
2022/04/13 00:49:17;;;;;;;3.30;2.70;;;7.30;72.60;;;;;;6307076;28;20225;-48
2022/04/13 00:52:21;;;;;;;4.17;3.30;;;7.30;72.60;;;;;;6302195;28;20206;-51
2022/04/13 00:55:24;;;;;;;3.33;2.80;;;7.30;72.80;;;;;;6286269;28;20202;-50
2022/04/13 00:58:29;;;;;;;3.80;2.67;;;7.20;72.70;;;;;;6290445;28;20188;-50
2022/04/13 01:01:29;;;;;;;3.13;2.83;;;7.20;72.80;;;;;;6306060;28;20193;-46
2022/04/13 01:04:31;;;;;;;4.53;2.87;;;7.10;73.10;;;;;;6289442;28;20220;-48
2022/04/13 01:07:33;;;;;;;2.57;2.37;;;7.10;73.10;;;;;;6290026;28;20219;-50
2022/04/13 01:10:35;;;;;;;3.47;2.70;;;7.00;73.20;;;;;;6283790;28;20181;-48
2022/04/13 01:13:39;;;;;;;3.43;2.87;;;7.00;73.40;;;;;;6264996;28;20283;-47
2022/04/13 01:16:40;;;;;;;3.23;2.70;;;6.90;73.60;;;;;;6278859;28;20209;-51
2022/04/13 01:19:40;;;;;;;2.43;2.23;;;6.90;73.70;;;;;;6261785;28;20192;-50
2022/04/13 01:22:42;;;;;;;2.90;2.60;;;6.90;73.80;;;;;;6264846;28;20192;-50
2022/04/13 01:25:53;;;;;;;3.23;2.90;;;6.90;73.70;;;;;;6264939;28;20196;-49
2022/04/13 01:28:54;;;;;;;2.60;2.27;;;6.80;73.70;;;;;;6281496;28;20186;-49
2022/04/13 01:31:56;;;;;;;2.90;2.60;;;6.80;73.70;;;;;;6288903;28;20259;-46
2022/04/13 01:34:57;;;;;;;3.50;2.77;;;6.80;73.80;;;;;;6283711;28;20200;-52
2022/04/13 01:37:58;;;;;;;3.50;3.20;;;6.70;74.00;;;;;;6281628;28;20200;-47
2022/04/13 01:40:59;;;;;;;2.67;2.47;;;6.70;74.20;;;;;;6264678;28;20186;-47
2022/04/13 01:44:00;;;;;;;2.70;2.47;;;6.70;74.20;;;;;;6281292;28;20216;-52
2022/04/13 01:47:00;;;;;;;2.93;2.50;;;6.70;74.40;;;;;;6288617;28;20184;-49
2022/04/13 01:50:01;;;;;;;4.40;2.90;;;6.70;74.50;;;;;;6274240;28;20191;-48
2022/04/13 01:53:02;;;;;;;3.20;2.90;;;6.60;74.80;;;;;;6294622;28;20187;-51
2022/04/13 01:56:03;;;;;;;3.60;2.77;;;6.60;75.00;;;;;;6294534;28;20192;-50
2022/04/13 01:59:04;;;;;;;3.07;2.77;;;6.60;75.10;;;;;;6286120;28;20200;-51
2022/04/13 02:02:06;;;;;;;3.20;2.63;;;6.60;75.20;;;;;;6252879;28;20189;-51
2022/04/13 02:05:07;;;;;;;3.33;2.90;;;6.50;75.20;;;;;;6269589;28;20225;-52
2022/04/13 02:08:08;;;;;;;3.47;2.80;;;6.50;75.20;;;;;;6285578;28;20192;-50
2022/04/13 02:11:09;;;;;;;2.73;2.27;;;6.50;75.20;;;;;;6269097;28;20185;-51
2022/04/13 02:14:09;;;;;;;4.07;2.73;;;6.50;75.10;;;;;;6268594;28;20204;-52
2022/04/13 02:17:14;;;;;;;3.37;2.60;;;6.40;75.20;;;;;;6269040;28;20194;-46
2022/04/13 02:20:15;;;;;;;2.63;2.43;;;6.40;75.30;;;;;;6285319;28;20178;-48
2022/04/13 02:23:16;;;;;;;3.20;2.90;;;6.40;75.30;;;;;;6284757;28;20235;-48
2022/04/13 02:26:19;;;;;;;3.57;2.70;;;6.40;75.50;;;;;;6268827;28;20192;-47
2022/04/13 02:29:20;;;;;;;4.90;3.10;;;6.30;75.60;;;;;;6285144;28;20189;-50
2022/04/13 02:32:20;;;;;;;2.73;2.47;;;6.30;76.00;;;;;;6269084;28;20193;-47
2022/04/13 02:35:21;;;;;;;2.70;2.50;;;6.30;76.00;;;;;;6285152;28;20272;-49
2022/04/13 02:38:23;;;;;;;3.00;2.60;;;6.30;76.10;;;;;;6271700;28;20200;-51
2022/04/13 02:41:23;;;;;;;4.77;2.80;;;6.30;76.00;;;;;;6291145;28;20293;-52
2022/04/13 02:44:24;;;;;;;3.30;2.97;;;6.30;76.10;;;;;;6286030;28;20318;-49
2022/04/13 02:47:25;;;;;;;3.67;3.23;;;6.30;76.20;;;;;;6292926;28;20171;-51
2022/04/13 02:50:26;;;;;;;4.50;3.27;;;6.20;76.50;;;;;;6276334;28;20191;-49
2022/04/13 02:53:28;;;;;;;3.17;2.83;;;6.20;76.30;;;;;;6293513;28;20192;-48
2022/04/13 02:56:29;;;;;;;3.77;3.37;;;6.20;76.30;;;;;;6293030;28;20250;-49
2022/04/13 02:59:30;;;;;;;2.90;2.70;;;6.20;76.30;;;;;;6292498;28;20284;-50
2022/04/13 03:02:31;;;;;;;3.53;2.87;;;6.10;76.30;;;;;;6271785;28;20196;-51
2022/04/13 03:05:32;;;;;;;3.97;3.00;;;6.10;76.50;;;;;;6267954;28;20263;-54
2022/04/13 03:08:32;;;;;;;3.47;2.87;;;6.10;76.50;;;;;;6284618;28;20189;-47
2022/04/13 03:11:33;;;;;;;2.90;2.70;;;6.10;76.60;;;;;;6284424;28;20198;-47
2022/04/13 03:14:34;;;;;;;3.90;3.43;;;6.00;76.50;;;;;;6281927;28;20264;-49
2022/04/13 03:17:35;;;;;;;4.50;3.60;;;6.00;76.60;;;;;;6280270;28;20184;-48
2022/04/13 03:20:36;;;;;;;4.50;3.70;;;6.00;76.50;;;;;;6275574;28;20199;-47
2022/04/13 03:23:37;;;;;;;4.73;4.00;;;5.90;76.60;;;;;;6293379;28;20212;-48
2022/04/13 03:26:37;;;;;;;6.30;4.43;;;5.90;76.60;;;;;;6273845;28;20190;-50
2022/04/13 03:29:38;;;;;;;5.00;3.27;;;5.90;76.70;;;;;;6266819;28;20232;-50
2022/04/13 03:32:40;;;;;;;5.73;3.43;;;5.90;76.80;;;;;;6267129;28;20208;-51
2022/04/13 03:35:40;;;;;;;4.27;3.17;;;5.80;77.00;;;;;;6283544;28;20185;-47
2022/04/13 03:38:41;;;;;;;3.07;2.77;;;5.80;77.00;;;;;;6267084;28;20273;-47
2022/04/13 03:41:42;;;;;;;4.13;3.27;;;5.80;77.00;;;;;;6283305;28;20254;-47
2022/04/13 03:44:43;;;;;;;5.10;3.33;;;5.80;77.10;;;;;;6282978;28;20217;-51
2022/04/13 03:47:44;;;;;;;3.63;3.20;;;5.70;77.20;;;;;;6266841;28;20192;-48
2022/04/13 03:50:45;;;;;;;3.10;2.80;;;5.70;77.30;;;;;;6291372;28;20179;-48
2022/04/13 03:53:46;;;;;;;3.60;3.13;;;5.70;77.30;;;;;;6300165;28;20187;-49
2022/04/13 03:56:46;;;;;;;5.17;3.07;;;5.60;77.40;;;;;;6275843;28;20282;-53
2022/04/13 03:59:47;;;;;;;3.57;3.00;;;5.60;77.60;;;;;;6283283;28;20192;-49
2022/04/13 04:02:48;;;;;;;2.90;2.63;;;5.60;77.70;;;;;;6266482;28;20304;-52
2022/04/13 04:05:48;;;;;;;3.40;2.97;;;5.60;77.70;;;;;;6266631;28;20280;-52
2022/04/13 04:08:50;;;;;;;6.03;3.07;;;5.60;77.80;;;;;;6266215;28;20181;-50
2022/04/13 04:11:51;;;;;;;4.13;3.30;;;5.50;77.70;;;;;;6282601;28;20196;-50
2022/04/13 04:14:52;;;;;;;4.33;3.07;;;5.50;77.80;;;;;;6270346;28;20197;-52
2022/04/13 04:17:52;;;;;;;4.57;3.43;;;5.40;77.90;;;;;;6298107;28;20192;-48
2022/04/13 04:20:53;;;;;;;5.43;3.40;;;5.40;78.00;;;;;;6308092;28;20172;-49
2022/04/13 04:23:54;;;;;;;3.77;3.13;;;5.40;78.00;;;;;;6283585;28;20227;-50
2022/04/13 04:26:57;;;;;;;3.30;3.00;;;5.40;78.10;;;;;;6265614;28;20192;-51
2022/04/13 04:29:58;;;;;;;4.17;3.17;;;5.40;78.30;;;;;;6279032;28;20228;-49
2022/04/13 04:32:59;;;;;;;4.27;3.50;;;5.40;78.10;;;;;;6280997;28;20227;-48
2022/04/13 04:35:59;;;;;;;3.57;3.27;;;5.40;78.10;;;;;;6280776;28;20271;-52
2022/04/13 04:39:00;;;;;;;4.63;3.53;;;5.40;78.20;;;;;;6290805;28;20214;-54
2022/04/13 04:42:04;;;;;;;3.40;3.10;;;5.40;78.30;;;;;;6279739;28;20337;-52
2022/04/13 04:45:05;;;;;;;3.23;2.60;;;5.40;78.40;;;;;;6280231;28;20220;-47
2022/04/13 04:48:06;;;;;;;3.70;2.53;;;5.40;78.50;;;;;;6282699;28;20200;-47
2022/04/13 04:51:07;;;;;;;3.50;2.90;;;5.40;78.50;;;;;;6262026;28;20198;-48
2022/04/13 04:54:07;;;;;;;3.30;3.00;;;5.40;78.60;;;;;;6280083;28;20190;-47
2022/04/13 04:57:08;;;;;;;4.63;3.40;;;5.40;78.60;;;;;;6275812;28;20207;-52
2022/04/13 05:00:12;;;;;;;5.13;3.97;;;5.40;78.60;;;;;;6268575;28;20209;-50
2022/04/13 05:03:12;;;;;;;3.67;3.23;;;5.40;78.60;;;;;;6264430;28;20311;-49
2022/04/13 05:06:13;;;;;;;3.60;2.60;;;5.40;78.60;;;;;;6275065;28;20190;-54
2022/04/13 05:09:17;;;;;;;3.73;3.20;;;5.40;78.60;;;;;;6275310;28;20258;-50
2022/04/13 05:12:18;;;;;;;3.93;3.17;;;5.40;78.70;;;;;;6272519;28;20189;-50
2022/04/13 05:15:19;;;;;;;2.83;2.60;;;5.40;78.80;;;;;;6276424;28;20192;-50
2022/04/13 05:18:20;;;;;;;3.97;2.73;;;5.40;78.80;;;;;;6292731;28;20183;-50
2022/04/13 05:21:20;;;;;;;5.07;2.97;;;5.50;78.80;;;;;;6290307;28;20222;-48
2022/04/13 05:24:21;;;;;;;3.73;2.80;;;5.50;78.80;;;;;;6288920;28;20219;-50
2022/04/13 05:27:22;;;;;;;3.33;2.97;;;5.50;78.90;;;;;;6274964;28;20189;-54
2022/04/13 05:30:23;;;;;;;3.60;2.90;;;5.60;79.00;;;;;;6258750;28;20277;-48
2022/04/13 05:33:24;;;;;;;3.77;2.63;;;5.60;79.10;;;;;;6261679;28;20196;-49
2022/04/13 05:36:25;;;;;;;4.00;2.93;;;5.60;79.10;;;;;;6245684;28;20204;-53
2022/04/13 05:39:26;;;;;;;3.20;2.80;;;5.70;79.20;;;;;;6237039;28;20193;-50
2022/04/13 05:42:27;;;;;;;3.57;3.27;;;5.70;79.30;;;;;;6237617;28;20197;-51
2022/04/13 05:45:27;;;;;;;3.43;2.77;;;5.80;79.40;;;;;;6260646;28;20217;-50
2022/04/13 05:48:28;;;;;;;8.93;6.10;;;5.80;79.40;;;;;;6244886;28;20212;-51
2022/04/13 05:51:29;;;;;;;10.80;6.60;;;5.80;79.40;;;;;;6250252;28;20198;-48
2022/04/13 05:54:30;;;;;;;11.97;6.40;;;5.90;79.30;;;;;;6253524;28;20202;-50
2022/04/13 05:57:30;;;;;;;10.43;6.40;;;5.90;79.30;;;;;;6261296;28;20236;-49
2022/04/13 06:00:31;;;;;;;10.17;5.97;;;6.00;79.30;;;;;;6244125;28;20250;-47
2022/04/13 06:03:32;;;;;;;6.80;4.77;;;6.10;79.20;;;;;;6244813;28;20216;-52
2022/04/13 06:06:33;;;;;;;6.80;4.67;;;6.10;79.10;;;;;;6238631;28;20193;-51
2022/04/13 06:09:34;;;;;;;6.30;3.43;;;6.20;79.10;;;;;;6236357;28;20190;-51
2022/04/13 06:12:35;;;;;;;5.90;3.97;;;6.20;79.00;;;;;;6242286;28;20266;-48
2022/04/13 06:15:35;;;;;;;6.07;4.07;;;6.30;78.90;;;;;;6260009;28;20193;-51
2022/04/13 06:18:36;;;;;;;7.87;4.20;;;6.30;78.80;;;;;;6247970;28;20193;-50
2022/04/13 06:21:37;;;;;;;6.57;4.70;;;6.40;78.70;;;;;;6235895;28;20222;-49
2022/04/13 06:24:38;;;;;;;6.23;4.37;;;6.50;78.60;;;;;;6250126;28;20232;-48
2022/04/13 06:27:40;;;;;;;4.23;3.23;;;6.60;78.50;;;;;;6229863;28;20198;-47
2022/04/13 06:30:43;;;;;;;6.63;4.03;;;6.60;78.40;;;;;;6265058;28;20236;-51
2022/04/13 06:33:44;;;;;;;4.47;3.43;;;6.80;78.30;;;;;;6242854;28;20219;-48
2022/04/13 06:36:45;;;;;;;8.23;4.43;;;6.80;78.10;;;;;;6235613;28;20194;-49
2022/04/13 06:39:46;;;;;;;4.20;3.63;;;6.90;77.90;;;;;;6236105;28;20198;-54
2022/04/13 06:42:47;;;;;;;4.10;3.70;;;7.00;77.90;;;;;;6235245;28;20286;-47
2022/04/13 06:45:48;;;;;;;5.23;3.83;;;7.10;77.90;;;;;;6246671;28;20303;-49
2022/04/13 06:48:49;;;;;;;3.77;3.37;;;7.20;77.90;;;;;;6243527;28;20189;-47
2022/04/13 06:51:50;;;;;;;4.07;3.10;;;7.30;77.70;;;;;;6241164;28;20240;-50
2022/04/13 06:54:51;;;;;;;5.53;3.37;;;7.30;77.50;;;;;;6237007;28;20197;-50
2022/04/13 06:57:52;;;;;;;4.30;3.73;;;7.40;77.30;;;;;;6247747;28;20207;-50
2022/04/13 07:00:53;;;;;;;10.20;4.93;;;7.60;77.00;;;;;;6251814;28;20264;-49
2022/04/13 07:03:54;;;;;;;6.47;3.93;;;7.70;76.60;;;;;;6251556;28;20241;-52
2022/04/13 07:06:54;;;;;;;4.13;3.53;;;7.80;76.40;;;;;;6235237;28;20194;-49
2022/04/13 07:09:55;;;;;;;5.27;4.77;;;7.90;76.10;;;;;;6234514;28;20224;-51
2022/04/13 07:12:56;;;;;;;7.87;4.73;;;8.00;75.90;;;;;;6235169;28;20233;-54
2022/04/13 07:15:57;;;;;;;5.80;4.07;;;8.20;74.40;;;;;;6247148;28;20194;-47
2022/04/13 07:18:58;;;;;;;5.60;4.07;;;8.30;74.10;;;;;;6254850;28;20201;-51
2022/04/13 07:21:59;;;;;;;7.57;4.63;;;8.40;73.60;;;;;;6258904;28;20198;-51
2022/04/13 07:25:00;;;;;;;5.03;3.33;;;8.60;72.10;;;;;;6258817;28;20221;-50
2022/04/13 07:28:01;;;;;;;6.43;5.40;;;8.80;72.10;;;;;;6250091;28;20194;-54
2022/04/13 07:31:02;;;;;;;7.03;4.90;;;8.90;70.80;;;;;;6250820;28;20230;-51
2022/04/13 07:34:02;;;;;;;6.97;5.53;;;9.00;69.60;;;;;;6218181;28;20183;-47
2022/04/13 07:37:04;;;;;;;9.20;5.87;;;9.30;69.00;;;;;;6240859;28;20202;-50
2022/04/13 07:40:09;;;;;;;8.33;4.50;;;9.40;68.50;;;;;;6250549;28;20202;-51
2022/04/13 07:43:09;;;;;;;6.80;4.43;;;9.60;68.00;;;;;;6265504;28;20209;-51
2022/04/13 07:46:11;;;;;;;4.70;4.17;;;9.80;67.20;;;;;;6247620;28;20252;-50
2022/04/13 07:49:12;;;;;;;7.73;5.43;;;9.90;67.10;;;;;;6272495;28;20201;-51
2022/04/13 07:52:13;;;;;;;8.53;5.03;;;10.10;65.60;;;;;;6262144;28;20315;-50
2022/04/13 07:55:14;;;;;;;4.87;4.37;;;10.30;65.20;;;;;;6262453;28;20187;-48
2022/04/13 07:58:16;;;;;;;7.70;5.20;;;10.40;64.70;;;;;;6267344;28;20213;-48
2022/04/13 08:01:17;;;;;;;4.50;4.10;;;10.50;63.40;;;;;;6258816;28;20200;-51
2022/04/13 08:04:18;;;;;;;5.83;4.83;;;10.60;63.00;;;;;;6252016;28;20213;-51
2022/04/13 08:07:19;;;;;;;6.60;4.87;;;10.80;62.20;;;;;;6234291;28;20185;-50
2022/04/13 08:10:20;;;;;;;6.53;5.83;;;11.00;61.60;;;;;;6236531;28;20191;-48
2022/04/13 08:13:21;;;;;;;7.07;5.13;;;11.00;61.50;;;;;;6249643;28;20285;-52
2022/04/13 08:16:21;;;;;;;5.77;4.70;;;11.20;60.70;;;;;;6264288;28;20199;-53
2022/04/13 08:19:23;;;;;;;5.93;4.47;;;11.40;59.60;;;;;;6249597;28;20198;-49
2022/04/13 08:22:27;;;;;;;7.87;5.03;;;11.50;59.30;;;;;;6277881;28;20221;-50
2022/04/13 08:25:28;;;;;;;4.80;4.30;;;11.70;58.90;;;;;;6265867;28;20233;-52
2022/04/13 08:28:28;;;;;;;6.93;4.60;;;11.80;57.80;;;;;;6245809;28;20187;-49
2022/04/13 08:31:29;;;;;;;6.27;4.80;;;11.80;57.10;;;;;;6250452;28;20232;-52
2022/04/13 08:34:32;;;;;;;5.03;4.10;;;11.90;57.50;;;;;;6240032;28;20214;-51
2022/04/13 08:37:33;;;;;;;7.10;4.63;;;12.00;58.40;;;;;;6258058;28;20202;-50
2022/04/13 08:40:51;;;;;;;6.40;4.67;;;12.10;56.80;;;;;;6257264;28;20291;-52
2022/04/13 08:43:56;;;;;;;6.30;4.47;;;12.20;57.30;;;;;;6272479;28;20252;-50
2022/04/13 08:47:01;;;;;;;5.87;5.27;;;12.30;56.80;;;;;;6239716;28;20320;-54
2022/04/13 08:50:04;;;;;;;6.73;4.73;;;12.50;56.10;;;;;;6269661;28;20195;-54
2022/04/13 08:53:12;;;;;;;6.37;4.43;;;12.60;55.00;;;;;;6257998;28;20214;-56
2022/04/13 08:56:19;;;;;;;5.83;4.30;;;12.70;55.70;;;;;;6235433;28;20194;-50
2022/04/13 08:59:46;;;;;;;5.40;4.50;;;12.70;56.00;;;;;;6246401;28;20322;-51
2022/04/13 09:02:50;;;;;;;5.47;4.37;;;12.80;55.10;;;;;;6264939;28;20254;-53
2022/04/13 09:05:54;;;;;;;5.13;3.70;;;12.90;55.60;;;;;;6265996;28;20246;-51
2022/04/13 09:09:00;;;;;;;5.67;3.57;;;13.10;54.80;;;;;;6260213;28;20259;-54
2022/04/13 09:12:03;;;;;;;5.17;4.47;;;13.20;54.30;;;;;;6262130;28;20193;-55
2022/04/13 09:15:05;;;;;;;5.33;4.70;;;13.50;53.30;;;;;;6261282;28;20193;-50
2022/04/13 09:18:11;;;;;;;5.70;4.13;;;13.60;52.70;;;;;;6241678;28;20289;-51
2022/04/13 09:21:13;;;;;;;5.70;4.43;;;13.80;53.10;;;;;;6237920;28;20195;-50
2022/04/13 09:24:15;;;;;;;6.27;5.03;;;13.90;53.30;;;;;;6246261;28;20214;-55
2022/04/13 09:27:16;;;;;;;8.80;4.80;;;14.00;52.40;;;;;;6234172;28;20195;-53
2022/04/13 09:30:17;;;;;;;5.33;4.20;;;14.10;52.10;;;;;;6236779;28;20246;-52
2022/04/13 09:33:18;;;;;;;9.47;4.73;;;14.30;51.90;;;;;;6255772;28;20221;-55
2022/04/13 09:36:19;;;;;;;6.43;5.30;;;14.40;51.20;;;;;;6256964;28;20335;-54
2022/04/13 09:39:21;;;;;;;6.07;5.00;;;14.50;51.80;;;;;;6256855;28;20182;-56
2022/04/13 09:42:26;;;;;;;5.50;3.97;;;14.60;51.70;;;;;;6256178;28;20267;-51
2022/04/13 09:45:33;;;;;;;5.90;4.50;;;14.60;51.90;;;;;;6278071;28;20237;-54
2022/04/13 09:48:34;;;;;;;8.97;4.93;;;14.60;53.20;;;;;;6270895;28;20258;-55
2022/04/13 09:51:37;;;;;;;5.77;4.60;;;14.70;50.60;;;;;;6251468;28;20196;-53
2022/04/13 09:54:48;;;;;;;5.73;4.27;;;14.70;50.90;;;;;;6247742;28;20196;-52
2022/04/13 09:57:50;;;;;;;5.03;4.40;;;14.90;51.10;;;;;;6231298;28;20191;-50
2022/04/13 10:00:55;;;;;;;6.33;4.67;;;15.00;50.70;;;;;;6247737;28;20261;-52
2022/04/13 10:03:56;;;;;;;6.10;4.20;;;15.10;50.50;;;;;;6247528;28;20219;-54
2022/04/13 10:07:16;;;;;;;4.93;3.90;;;15.20;50.80;;;;;;6231858;28;20188;-53
2022/04/13 10:10:24;;;;;;;6.03;3.97;;;15.20;51.40;;;;;;6248537;28;20188;-55
2022/04/13 10:13:36;;;;;;;4.73;4.30;;;15.30;51.30;;;;;;6235908;28;20218;-52
2022/04/13 10:16:37;;;;;;;6.37;4.10;;;15.40;50.20;;;;;;6252678;28;20302;-54
2022/04/13 10:19:39;;;;;;;5.97;4.97;;;15.50;48.80;;;;;;6236550;28;20206;-52
2022/04/13 10:23:02;;;;;;;6.17;4.23;;;15.60;49.00;;;;;;6252461;28;20356;-52
2022/04/13 10:26:10;;;;;;;4.87;4.37;;;15.70;48.90;;;;;;6271345;28;20222;-50
2022/04/13 10:29:18;;;;;;;6.03;4.30;;;15.90;49.90;;;;;;6244775;28;20195;-54
2022/04/13 10:32:23;;;;;;;4.87;3.50;;;16.20;48.40;;;;;;6310346;28;20200;-50
2022/04/13 10:35:24;;;;;;;6.87;5.07;;;16.30;48.50;;;;;;6310457;28;20264;-51
2022/04/13 10:38:25;;;;;;;4.90;4.30;;;16.40;46.10;;;;;;6293218;28;20197;-54
2022/04/13 10:41:27;;;;;;;7.23;3.97;;;16.40;47.10;;;;;;6292676;28;20189;-52
2022/04/13 10:44:36;;;;;;;6.13;4.40;;;16.50;49.30;;;;;;6281700;28;20217;-52
2022/04/13 10:47:47;;;;;;;5.37;3.73;;;16.70;48.40;;;;;;6284500;28;20194;-54
2022/04/13 10:51:02;;;;;;;5.10;4.07;;;16.80;47.20;;;;;;6284802;28;20244;-55
2022/04/13 10:54:05;;;;;;;4.47;3.10;;;16.80;46.60;;;;;;6287716;28;20194;-54
2022/04/13 10:57:06;;;;;;;5.30;4.03;;;16.90;46.20;;;;;;6302279;28;20203;-51
2022/04/13 11:00:10;;;;;;;5.30;3.70;;;16.90;45.90;;;;;;6292936;28;20275;-55
2022/04/13 11:03:11;;;;;;;4.13;3.60;;;16.90;47.60;;;;;;6293014;28;20188;-49
2022/04/13 11:06:13;;;;;;;5.83;4.27;;;17.00;47.60;;;;;;6284558;28;20190;-49
2022/04/13 11:09:29;;;;;;;3.57;2.90;;;17.20;46.60;;;;;;6284518;28;20181;-52
2022/04/13 11:12:31;;;;;;;5.20;4.17;;;17.30;45.80;;;;;;6303903;28;20280;-48
2022/04/13 11:15:40;;;;;;;5.10;3.73;;;17.60;43.30;;;;;;6292351;28;20196;-50
2022/04/13 11:18:42;;;;;;;4.57;4.17;;;17.80;45.60;;;;;;6304046;28;20271;-50
2022/04/13 11:21:51;;;;;;;6.37;4.33;;;18.10;44.70;;;;;;6283751;28;20197;-52
2022/04/13 11:24:56;;;;;;;4.97;4.47;;;18.10;43.60;;;;;;6283440;28;20308;-54
2022/04/13 11:27:57;;;;;;;5.20;4.40;;;18.10;42.80;;;;;;6283877;28;20736;-53
2022/04/13 11:31:08;;;;;;;5.27;4.13;;;18.30;41.30;;;;;;6294251;28;20233;-52
2022/04/13 11:34:09;;;;;;;6.40;5.33;;;17.90;40.50;;;;;;6278758;28;20213;-52
2022/04/13 11:37:13;;;;;;;7.30;5.37;;;18.30;42.70;;;;;;6285833;28;20193;-51
2022/04/13 11:40:21;;;;;;;7.07;5.00;;;18.60;43.30;;;;;;6284386;28;20225;-50
2022/04/13 11:43:22;;;;;;;6.60;5.33;;;19.10;41.50;;;;;;6293833;28;20276;-53
2022/04/13 11:46:38;;;;;;;6.90;5.77;;;19.40;41.80;;;;;;6271042;28;20190;-50
2022/04/13 11:49:54;;;;;;;7.50;5.97;;;19.40;40.70;;;;;;6266618;28;20216;-49
2022/04/13 11:53:05;;;;;;;7.80;5.37;;;19.50;41.60;;;;;;6261124;28;20189;-48
2022/04/13 11:56:06;;;;;;;6.77;6.07;;;19.80;40.10;;;;;;6288241;28;20284;-49
2022/04/13 11:59:07;;;;;;;8.00;5.80;;;19.90;39.90;;;;;;6266340;28;20635;-51
2022/04/13 12:02:08;;;;;;;8.23;5.80;;;20.00;39.60;;;;;;6280639;28;20197;-52
2022/04/13 12:05:13;;;;;;;6.40;5.30;;;20.00;39.40;;;;;;6276602;28;20250;-48
2022/04/13 12:08:23;;;;;;;8.63;6.40;;;20.20;40.70;;;;;;6296365;28;20189;-48
2022/04/13 12:11:51;;;;;;;6.03;4.93;;;20.50;39.70;;;;;;6288991;28;20186;-48
2022/04/13 12:14:56;;;;;;;7.20;5.33;;;20.80;39.60;;;;;;6267496;28;20181;-48
2022/04/13 12:17:57;;;;;;;7.07;5.30;;;21.30;38.00;;;;;;6286816;28;20187;-47
2022/04/13 12:21:10;;;;;;;7.33;6.63;;;21.80;35.10;;;;;;6307557;28;20193;-49
2022/04/13 12:24:12;;;;;;;6.07;4.43;;;22.20;34.20;;;;;;6265984;28;20320;-50
2022/04/13 12:27:27;;;;;;;8.10;7.10;;;22.80;34.80;;;;;;6265252;28;20275;-48
2022/04/13 12:30:28;;;;;;;5.20;4.30;;;23.40;33.70;;;;;;6284857;28;20389;-52
2022/04/13 12:33:30;;;;;;;6.90;6.20;;;24.10;34.10;;;;;;6291435;28;20193;-48
2022/04/13 12:36:30;;;;;;;7.30;5.97;;;24.50;31.40;;;;;;6314985;28;20220;-48
2022/04/13 12:39:33;;;;;;;5.20;4.47;;;24.80;31.40;;;;;;6250077;28;20227;-48
2022/04/13 12:42:34;;;;;;;9.60;7.50;;;25.20;31.00;;;;;;6280004;28;20207;-50
2022/04/13 12:45:35;;;;;;;7.87;6.13;;;25.20;31.40;;;;;;6264545;28;20284;-48
2022/04/13 12:48:36;;;;;;;7.50;6.27;;;25.40;31.10;;;;;;6271502;28;20185;-49
2022/04/13 12:51:38;;;;;;;9.27;8.37;;;25.50;31.50;;;;;;6298855;28;20195;-49
2022/04/13 12:54:41;;;;;;;11.57;7.63;;;25.80;29.60;;;;;;6292844;28;20201;-46
2022/04/13 12:57:42;;;;;;;8.37;5.47;;;26.20;29.50;;;;;;6286697;28;20235;-47
2022/04/13 13:00:54;;;;;;;5.20;4.40;;;26.20;29.90;;;;;;6266921;28;20193;-47
2022/04/13 13:04:10;;;;;;;7.57;6.80;;;26.50;29.00;;;;;;6283114;28;20255;-48
2022/04/13 13:07:11;;;;;;;8.03;6.47;;;27.00;29.10;;;;;;6287176;28;20243;-51
2022/04/13 13:10:13;;;;;;;5.73;4.40;;;27.20;27.50;;;;;;6283209;28;20189;-51
2022/04/13 13:13:19;;;;;;;6.93;4.80;;;27.60;27.70;;;;;;6276034;28;20181;-50
2022/04/13 13:16:31;;;;;;;6.73;5.23;;;27.90;27.90;;;;;;6292718;28;20193;-48
2022/04/13 13:19:33;;;;;;;5.53;5.03;;;28.30;26.10;;;;;;6297559;28;20674;-47
2022/04/13 13:22:39;;;;;;;5.93;5.33;;;27.90;27.30;;;;;;6264574;28;20189;-52
2022/04/13 13:25:41;;;;;;;9.13;7.07;;;28.60;26.90;;;;;;6269749;28;20220;-53
2022/04/13 13:28:42;;;;;;;4.93;4.40;;;29.20;25.70;;;;;;6289427;28;20184;-49
2022/04/13 13:31:43;;;;;;;6.17;5.63;;;29.70;26.60;;;;;;6273919;28;20236;-48
2022/04/13 13:34:57;;;;;;;7.87;6.37;;;29.80;24.80;;;;;;6281234;28;20432;-51
2022/04/13 13:38:09;;;;;;;6.33;5.73;;;29.50;25.30;;;;;;6323133;28;20195;-52
2022/04/13 13:41:11;;;;;;;5.10;4.13;;;29.60;25.00;;;;;;6297413;28;20185;-54
2022/04/13 13:44:24;;;;;;;7.20;5.33;;;29.90;25.10;;;;;;6266134;28;20227;-51
2022/04/13 13:47:26;;;;;;;7.30;6.23;;;29.90;25.30;;;;;;6272504;28;20212;-54
2022/04/13 13:50:32;;;;;;;9.27;6.03;;;30.10;25.20;;;;;;6285557;28;20204;-51
2022/04/13 13:53:33;;;;;;;6.13;5.57;;;29.70;24.90;;;;;;6310178;28;20203;-52
2022/04/13 13:56:34;;;;;;;7.83;7.03;;;28.90;24.80;;;;;;6307862;28;20188;-49
2022/04/13 13:59:35;;;;;;;7.10;3.90;;;28.40;25.30;;;;;;6286373;28;20192;-52
2022/04/13 14:02:36;;;;;;;6.70;5.47;;;28.30;26.30;;;;;;6280051;28;20193;-53
2022/04/13 14:05:38;;;;;;;7.30;4.63;;;28.90;26.80;;;;;;6302654;28;20201;-52
2022/04/13 14:08:39;;;;;;;6.97;6.27;;;29.70;26.00;;;;;;6303326;28;20189;-50
2022/04/13 14:11:40;;;;;;;5.57;5.00;;;30.00;24.90;;;;;;6278082;28;20188;-48
2022/04/13 14:14:41;;;;;;;4.80;4.30;;;30.50;24.90;;;;;;6307473;28;20188;-50
2022/04/13 14:17:43;;;;;;;7.37;5.37;;;31.00;24.40;;;;;;6254803;28;20201;-49
2022/04/13 14:20:45;;;;;;;6.30;5.70;;;31.30;23.40;;;;;;6289808;28;20200;-53
2022/04/13 14:23:46;;;;;;;5.60;4.73;;;29.70;24.80;;;;;;6310310;28;20204;-50
2022/04/13 14:26:47;;;;;;;6.77;6.10;;;29.30;25.30;;;;;;6280134;28;20197;-49
2022/04/13 14:29:48;;;;;;;7.23;6.53;;;29.40;25.50;;;;;;6268952;28;20241;-50
2022/04/13 14:32:50;;;;;;;8.23;6.67;;;29.70;25.10;;;;;;6287784;28;20234;-52
2022/04/13 14:35:50;;;;;;;8.03;7.23;;;28.60;26.50;;;;;;6284759;28;20226;-48
2022/04/13 14:38:52;;;;;;;6.60;6.00;;;28.30;26.10;;;;;;6280815;28;20196;-52
2022/04/13 14:41:52;;;;;;;4.90;4.40;;;28.30;26.50;;;;;;6266154;28;20196;-54
2022/04/13 14:44:53;;;;;;;6.87;6.27;;;28.80;26.40;;;;;;6282695;28;20213;-51
2022/04/13 14:47:54;;;;;;;8.90;6.70;;;28.90;26.60;;;;;;6307398;28;20212;-53
2022/04/13 14:50:57;;;;;;;7.60;6.90;;;28.50;26.50;;;;;;6278687;28;20191;-54
2022/04/13 14:53:58;;;;;;;4.97;4.47;;;28.30;26.10;;;;;;6319668;28;20215;-54
2022/04/13 14:56:58;;;;;;;5.67;4.57;;;28.90;26.30;;;;;;6265953;28;20196;-53
2022/04/13 15:00:00;;;;;;;5.77;4.27;;;29.40;26.30;;;;;;6250102;28;20193;-52
2022/04/13 15:03:01;;;;;;;5.63;5.00;;;29.90;25.60;;;;;;6288081;28;20193;-51
2022/04/13 15:06:03;;;;;;;7.43;6.07;;;29.80;25.80;;;;;;6265967;28;20275;-54
2022/04/13 15:09:06;;;;;;;9.30;6.30;;;29.50;26.10;;;;;;6265606;28;20223;-53
2022/04/13 15:12:07;;;;;;;9.33;6.07;;;29.50;25.70;;;;;;6281667;28;20690;-54
2022/04/13 15:15:10;;;;;;;6.30;4.40;;;30.00;24.90;;;;;;6264649;28;20205;-49
2022/04/13 15:18:11;;;;;;;6.70;5.40;;;30.10;24.80;;;;;;6281570;28;20200;-51
2022/04/13 15:21:11;;;;;;;6.83;4.83;;;30.40;25.00;;;;;;6287997;28;20228;-54
2022/04/13 15:24:13;;;;;;;5.90;4.67;;;30.60;24.30;;;;;;6269580;28;20305;-49
2022/04/13 15:27:14;;;;;;;4.77;4.23;;;30.50;24.30;;;;;;6301821;28;20196;-51
2022/04/13 15:30:15;;;;;;;6.67;5.30;;;30.30;24.50;;;;;;6280002;28;20272;-48
2022/04/13 15:33:16;;;;;;;5.83;5.20;;;30.00;25.50;;;;;;6282819;28;20207;-53
2022/04/13 15:36:17;;;;;;;5.67;4.37;;;29.30;26.30;;;;;;6285481;28;20196;-52
2022/04/13 15:39:19;;;;;;;4.97;3.70;;;29.10;26.60;;;;;;6295274;28;20306;-52
2022/04/13 15:42:20;;;;;;;4.77;4.37;;;29.10;26.50;;;;;;6280320;28;20237;-50
2022/04/13 15:45:21;;;;;;;6.03;5.13;;;28.70;26.40;;;;;;6276620;28;20212;-52
2022/04/13 15:48:22;;;;;;;7.13;5.03;;;28.10;27.90;;;;;;6258810;28;20196;-51
2022/04/13 15:51:22;;;;;;;9.50;4.30;;;27.30;27.90;;;;;;6296468;28;20217;-54
2022/04/13 15:54:23;;;;;;;8.43;5.20;;;26.70;28.60;;;;;;6289290;28;20200;-53
2022/04/13 15:57:24;;;;;;;7.27;5.90;;;26.10;29.10;;;;;;6262879;28;20200;-52